createdAt,value
2022-12-02T00:02:25.322Z,2.70
2022-12-02T00:04:59.201Z,2.70
2022-12-02T00:07:26.414Z,2.60
2022-12-02T00:09:53.764Z,2.80
2022-12-02T00:12:31.255Z,2.60
2022-12-02T00:15:01.461Z,2.90
2022-12-02T00:17:28.660Z,2.90
2022-12-02T00:19:55.523Z,2.70
2022-12-02T00:22:22.418Z,2.60
2022-12-02T00:24:49.709Z,2.70
2022-12-02T00:27:16.864Z,3.00
2022-12-02T00:29:43.761Z,2.70
2022-12-02T00:32:10.709Z,2.70
2022-12-02T00:34:37.775Z,2.60
2022-12-02T00:37:04.654Z,2.60
2022-12-02T00:39:31.544Z,2.60
2022-12-02T00:41:58.411Z,3.00
2022-12-02T00:44:43.881Z,2.60
2022-12-02T00:47:10.797Z,2.50
2022-12-02T00:49:37.730Z,2.60
2022-12-02T00:52:04.796Z,2.50
2022-12-02T00:54:31.697Z,2.50
2022-12-02T00:56:58.756Z,2.60
2022-12-02T00:59:25.637Z,2.80
2022-12-02T01:01:52.550Z,2.90
2022-12-02T01:04:19.396Z,2.90
2022-12-02T01:06:46.293Z,2.60
2022-12-02T01:09:13.344Z,2.80
2022-12-02T01:11:40.294Z,2.60
2022-12-02T01:14:07.176Z,2.60
2022-12-02T01:16:34.096Z,2.60
2022-12-02T01:19:01.174Z,2.60
2022-12-02T01:21:28.177Z,2.60
2022-12-02T01:23:57.601Z,2.60
2022-12-02T01:26:24.531Z,2.90
2022-12-02T01:28:51.604Z,2.90
2022-12-02T01:31:18.620Z,2.90
2022-12-02T01:33:45.704Z,2.70
2022-12-02T01:36:12.681Z,2.50
2022-12-02T01:38:39.606Z,2.80
2022-12-02T01:41:07.016Z,2.40
2022-12-02T01:43:34.399Z,2.50
2022-12-02T01:46:02.013Z,2.50
2022-12-02T01:48:30.032Z,2.40
2022-12-02T01:50:57.259Z,2.40
2022-12-02T01:53:24.335Z,2.40
2022-12-02T01:55:51.272Z,2.40
2022-12-02T01:58:22.968Z,2.80
2022-12-02T02:00:49.948Z,2.40
2022-12-02T02:03:17.029Z,2.40
2022-12-02T02:05:43.881Z,2.80
2022-12-02T02:08:14.903Z,2.40
2022-12-02T02:10:44.661Z,2.40
2022-12-02T02:13:14.228Z,2.50
2022-12-02T02:15:43.529Z,2.40
2022-12-02T02:18:10.833Z,2.40
2022-12-02T02:20:42.538Z,2.50
2022-12-02T02:23:09.394Z,2.60
2022-12-02T02:25:48.874Z,2.90
2022-12-02T02:28:16.311Z,2.50
2022-12-02T02:30:43.900Z,2.50
2022-12-02T02:33:13.470Z,2.60
2022-12-02T02:35:42.445Z,2.80
2022-12-02T02:38:13.556Z,2.60
2022-12-02T02:40:41.292Z,2.50
2022-12-02T02:43:09.344Z,2.50
2022-12-02T02:45:39.440Z,2.50
2022-12-02T02:48:09.493Z,2.60
2022-12-02T02:50:39.103Z,2.50
2022-12-02T02:53:14.958Z,2.30
2022-12-02T02:55:42.403Z,2.70
2022-12-02T02:58:16.146Z,2.60
2022-12-02T03:00:47.367Z,2.60
2022-12-02T03:03:17.456Z,2.50
2022-12-02T03:05:45.114Z,2.70
2022-12-02T03:08:12.193Z,2.60
2022-12-02T03:10:40.090Z,2.60
2022-12-02T03:13:07.472Z,2.50
2022-12-02T03:15:34.509Z,2.40
2022-12-02T03:18:01.543Z,2.50
2022-12-02T03:20:28.509Z,2.50
2022-12-02T03:22:55.396Z,2.50
2022-12-02T03:25:22.378Z,2.50
2022-12-02T03:27:49.501Z,2.50
2022-12-02T03:30:18.549Z,2.40
2022-12-02T03:32:46.293Z,2.40
2022-12-02T03:35:13.781Z,2.40
2022-12-02T03:37:40.762Z,2.40
2022-12-02T03:40:08.536Z,2.40
2022-12-02T03:42:35.776Z,2.40
2022-12-02T03:45:03.963Z,2.40
2022-12-02T03:47:31.068Z,2.40
2022-12-02T03:49:58.772Z,2.40
2022-12-02T03:52:26.028Z,2.40
2022-12-02T03:54:55.441Z,2.40
2022-12-02T03:57:22.994Z,2.40
2022-12-02T03:59:50.055Z,2.40
2022-12-02T04:02:17.223Z,2.50
2022-12-02T04:04:44.281Z,2.50
2022-12-02T04:07:11.147Z,2.70
2022-12-02T04:09:38.001Z,2.50
2022-12-02T04:12:05.116Z,2.40
2022-12-02T04:14:32.002Z,2.50
2022-12-02T04:17:01.497Z,2.50
2022-12-02T04:19:30.913Z,2.50
2022-12-02T04:21:57.806Z,2.40
2022-12-02T04:24:24.750Z,2.40
2022-12-02T04:26:51.655Z,2.50
2022-12-02T04:29:18.525Z,2.50
2022-12-02T04:31:45.406Z,2.60
2022-12-02T04:34:12.380Z,2.60
2022-12-02T04:36:39.433Z,2.50
2022-12-02T04:39:06.661Z,2.40
2022-12-02T04:41:33.554Z,2.40
2022-12-02T04:44:00.477Z,2.80
2022-12-02T04:46:27.465Z,2.40
2022-12-02T04:48:54.449Z,2.40
2022-12-02T04:51:21.344Z,2.30
2022-12-02T04:53:48.283Z,2.30
2022-12-02T04:56:15.185Z,2.30
2022-12-02T04:58:42.153Z,2.30
2022-12-02T05:01:09.044Z,2.20
2022-12-02T05:03:36.035Z,2.20
2022-12-02T05:06:03.037Z,2.10
2022-12-02T05:08:30.001Z,2.40
2022-12-02T05:10:56.927Z,2.10
2022-12-02T05:13:23.905Z,2.10
2022-12-02T05:15:50.810Z,2.10
2022-12-02T05:18:17.906Z,2.10
2022-12-02T05:20:44.903Z,2.10
2022-12-02T05:23:13.815Z,2.10
2022-12-02T05:25:40.983Z,2.10
2022-12-02T05:28:08.100Z,2.10
2022-12-02T05:30:35.372Z,2.30
2022-12-02T05:33:08.265Z,2.30
2022-12-02T05:35:38.772Z,2.30
2022-12-02T05:38:06.269Z,2.30
2022-12-02T05:40:34.121Z,2.10
2022-12-02T05:43:18.328Z,2.10
2022-12-02T05:45:45.589Z,2.20
2022-12-02T05:48:14.980Z,2.20
2022-12-02T05:50:43.317Z,2.20
2022-12-02T05:53:23.802Z,2.10
2022-12-02T05:55:55.191Z,2.10
2022-12-02T05:58:23.320Z,2.30
2022-12-02T06:00:59.306Z,2.10
2022-12-02T06:03:26.983Z,2.10
2022-12-02T06:05:54.881Z,2.20
2022-12-02T06:08:37.762Z,2.20
2022-12-02T06:11:34.750Z,2.40
2022-12-02T06:14:06.731Z,2.20
2022-12-02T06:16:35.253Z,2.10
2022-12-02T06:19:08.404Z,2.20
2022-12-02T06:21:35.588Z,2.10
2022-12-02T06:24:02.551Z,2.30
2022-12-02T06:26:29.494Z,2.30
2022-12-02T06:29:01.522Z,2.30
2022-12-02T06:31:37.855Z,2.30
2022-12-02T06:34:38.920Z,2.30
2022-12-02T06:37:21.268Z,2.10
2022-12-02T06:40:26.346Z,2.20
2022-12-02T06:42:40.564Z,2.10
2022-12-02T06:45:49.565Z,2.10
2022-12-02T06:48:34.304Z,2.20
2022-12-02T06:51:13.247Z,2.20
2022-12-02T06:53:41.817Z,2.20
2022-12-02T06:56:21.461Z,2.20
2022-12-02T06:59:27.667Z,2.30
2022-12-02T07:02:07.738Z,2.60
2022-12-02T07:04:41.247Z,2.30
2022-12-02T07:07:23.948Z,2.30
2022-12-02T07:09:56.711Z,2.20
2022-12-02T07:12:31.760Z,2.20
2022-12-02T07:15:02.793Z,2.20
2022-12-02T07:17:36.918Z,2.20
2022-12-02T07:20:07.000Z,2.20
2022-12-02T07:23:14.628Z,2.20
2022-12-02T07:25:53.362Z,2.20
2022-12-02T07:28:28.104Z,2.20
2022-12-02T07:31:21.429Z,2.20
2022-12-02T07:33:55.130Z,2.20
2022-12-02T09:04:50.266Z,2.40
2022-12-02T09:07:17.612Z,3.00
2022-12-02T09:09:46.656Z,3.10
2022-12-02T09:12:14.020Z,2.80
2022-12-02T09:14:42.648Z,3.10
2022-12-02T09:17:09.681Z,2.80
2022-12-02T09:25:29.265Z,2.40
2022-12-02T09:27:56.551Z,2.80
2022-12-02T09:30:26.364Z,3.00
2022-12-02T09:32:53.286Z,3.00
2022-12-02T09:35:20.287Z,2.80
2022-12-02T09:37:52.018Z,3.00
2022-12-02T09:40:19.454Z,2.80
2022-12-02T09:42:52.575Z,2.80
2022-12-02T09:45:19.797Z,2.90
2022-12-02T09:47:46.727Z,2.90
2022-12-02T09:50:15.406Z,3.20
2022-12-02T09:52:42.423Z,3.00
2022-12-02T09:55:19.024Z,3.20
2022-12-02T09:57:47.564Z,2.90
2022-12-02T10:00:17.933Z,3.20
2022-12-02T10:02:48.254Z,3.00
2022-12-02T10:05:23.401Z,3.30
2022-12-02T10:07:52.748Z,3.10
2022-12-02T10:10:26.158Z,3.10
2022-12-02T10:12:54.470Z,3.20
2022-12-02T10:15:29.327Z,3.10
2022-12-02T10:17:56.930Z,3.40
2022-12-02T10:20:28.624Z,3.20
2022-12-02T10:23:18.659Z,3.40
2022-12-02T10:26:07.304Z,3.10
2022-12-02T10:29:33.272Z,3.00
2022-12-02T10:32:31.236Z,3.00
2022-12-02T10:35:17.630Z,3.00
2022-12-02T10:38:03.647Z,3.00
2022-12-02T10:43:54.118Z,3.00
2022-12-02T10:46:41.044Z,3.10
2022-12-02T10:49:40.004Z,3.00
2022-12-02T10:52:36.199Z,3.00
2022-12-02T10:55:04.413Z,3.00
2022-12-02T10:57:33.692Z,3.00
2022-12-02T11:00:12.795Z,3.00
2022-12-02T11:02:53.930Z,3.00
2022-12-02T11:05:31.153Z,3.10
2022-12-02T11:07:59.955Z,3.00
2022-12-02T11:10:39.487Z,3.00
2022-12-02T11:13:31.978Z,3.10
2022-12-02T11:16:28.041Z,3.10
2022-12-02T11:19:03.414Z,3.10
2022-12-02T11:21:30.343Z,3.40
2022-12-02T11:24:22.363Z,3.30
2022-12-02T11:27:04.269Z,3.10
2022-12-02T11:29:35.280Z,3.00
2022-12-02T11:32:27.324Z,2.90
2022-12-02T11:35:17.811Z,2.90
2022-12-02T11:37:47.384Z,3.00
2022-12-02T11:40:17.719Z,3.00
2022-12-02T11:42:46.235Z,3.00
2022-12-02T11:45:16.389Z,3.00
2022-12-02T11:47:53.591Z,3.00
2022-12-02T11:50:28.562Z,3.00
2022-12-02T11:53:12.973Z,3.00
2022-12-02T11:55:47.025Z,3.30
2022-12-02T11:58:27.021Z,3.00
2022-12-02T12:01:13.588Z,3.20
2022-12-02T12:03:47.995Z,3.00
2022-12-02T12:06:19.080Z,3.00
2022-12-02T12:08:49.771Z,3.00
2022-12-02T12:11:39.200Z,3.40
2022-12-02T12:14:13.683Z,3.00
2022-12-02T12:16:47.240Z,3.00
2022-12-02T12:19:15.166Z,3.00
2022-12-02T12:21:48.625Z,2.80
2022-12-02T12:27:31.392Z,3.00
2022-12-02T12:29:58.309Z,3.00
2022-12-02T12:32:25.469Z,3.30
2022-12-02T12:34:55.300Z,3.40
2022-12-02T12:37:22.569Z,2.90
2022-12-02T12:39:52.617Z,3.00
2022-12-02T12:42:19.614Z,3.00
2022-12-02T12:44:46.772Z,2.90
2022-12-02T12:47:13.881Z,2.90
2022-12-02T12:49:40.950Z,2.90
2022-12-02T12:52:09.159Z,2.90
2022-12-02T12:54:36.222Z,3.00
2022-12-02T12:57:03.457Z,3.10
2022-12-02T12:59:30.336Z,3.10
2022-12-02T13:02:02.727Z,3.10
2022-12-02T13:04:29.757Z,3.10
2022-12-02T13:07:01.351Z,3.20
2022-12-02T13:09:28.388Z,3.10
2022-12-02T13:11:55.364Z,3.30
2022-12-02T13:32:40.148Z,2.80
2022-12-02T13:35:07.789Z,3.20
2022-12-02T13:37:35.273Z,2.70
2022-12-02T13:40:03.350Z,3.20
2022-12-02T13:42:30.232Z,2.70
2022-12-02T13:44:57.310Z,2.70
2022-12-02T13:47:24.282Z,3.20
2022-12-02T13:49:51.371Z,2.70
2022-12-02T13:52:18.745Z,2.70
2022-12-02T13:54:45.704Z,2.70
2022-12-02T13:57:12.641Z,2.70
2022-12-02T13:59:39.568Z,2.90
2022-12-02T14:02:06.997Z,2.80
2022-12-02T14:04:33.998Z,2.70
2022-12-02T14:07:00.929Z,2.70
2022-12-02T14:09:27.902Z,2.90
2022-12-02T14:11:55.056Z,2.90
2022-12-02T14:14:22.923Z,2.80
2022-12-02T14:16:50.230Z,2.80
2022-12-02T14:19:17.426Z,2.80
2022-12-02T14:21:44.662Z,2.80
2022-12-02T14:24:11.780Z,3.00
2022-12-02T14:26:38.960Z,2.70
2022-12-02T14:29:05.946Z,2.60
2022-12-02T14:31:33.286Z,2.70
2022-12-02T14:34:11.465Z,2.70
2022-12-02T14:36:39.290Z,2.70
2022-12-02T14:39:06.961Z,3.20
2022-12-02T14:41:34.152Z,2.70
2022-12-02T14:44:01.238Z,3.10
2022-12-02T14:46:30.471Z,2.70
2022-12-02T14:49:23.150Z,2.60
2022-12-02T14:51:45.140Z,2.60
2022-12-02T14:54:12.122Z,2.60
2022-12-02T14:56:39.003Z,2.60
2022-12-02T14:59:09.630Z,2.90
2022-12-02T15:01:41.273Z,2.60
2022-12-02T15:04:08.894Z,2.50
2022-12-02T15:06:36.431Z,2.60
2022-12-02T15:09:04.893Z,2.60
2022-12-02T15:11:32.100Z,2.60
2022-12-02T15:13:59.053Z,2.60
2022-12-02T15:16:26.002Z,2.50
2022-12-02T15:18:53.064Z,2.50
2022-12-02T15:21:20.071Z,2.50
2022-12-02T15:23:47.049Z,2.80
2022-12-02T15:26:14.187Z,2.50
2022-12-02T15:28:41.109Z,2.60
2022-12-02T15:31:08.264Z,2.50
2022-12-02T15:33:35.265Z,2.60
2022-12-02T15:36:02.243Z,3.00
2022-12-02T15:38:29.936Z,2.80
2022-12-02T15:40:57.629Z,2.60
2022-12-02T15:43:24.644Z,2.80
2022-12-02T15:45:51.652Z,2.80
2022-12-02T15:48:18.543Z,2.60
2022-12-02T15:50:48.210Z,2.60
2022-12-02T15:53:17.440Z,2.80
2022-12-02T15:55:44.508Z,2.80
2022-12-02T15:58:11.638Z,2.70
2022-12-02T16:00:38.668Z,2.70
2022-12-02T16:03:05.766Z,2.70
2022-12-02T16:05:32.799Z,2.40
2022-12-02T16:07:59.962Z,2.40
2022-12-02T16:10:27.250Z,2.70
2022-12-02T16:12:54.153Z,2.70
2022-12-02T16:15:21.111Z,2.70
2022-12-02T16:17:47.951Z,2.70
2022-12-02T16:20:15.233Z,2.40
2022-12-02T16:22:42.237Z,2.40
2022-12-02T16:25:11.478Z,2.40
2022-12-02T16:27:38.460Z,2.40
2022-12-02T16:30:05.958Z,2.40
2022-12-02T16:32:32.896Z,2.50
2022-12-02T16:34:59.758Z,2.60
2022-12-02T16:37:26.798Z,2.40
2022-12-02T16:39:53.723Z,2.70
2022-12-02T16:42:20.645Z,2.40
2022-12-02T16:44:53.683Z,2.40
2022-12-02T16:47:22.778Z,2.70
2022-12-02T16:49:50.212Z,2.40
2022-12-02T16:52:17.491Z,2.40
2022-12-02T16:54:47.993Z,2.60
2022-12-02T16:57:15.228Z,2.40
2022-12-02T16:59:42.384Z,2.70
2022-12-02T17:02:10.897Z,2.50
2022-12-02T17:04:38.111Z,2.40
2022-12-02T17:07:05.198Z,2.40
2022-12-02T17:09:32.240Z,2.40
2022-12-02T17:11:59.685Z,2.40
2022-12-02T17:14:26.611Z,2.60
2022-12-02T17:16:53.872Z,2.40
2022-12-02T17:19:21.353Z,2.40
2022-12-02T17:21:48.357Z,2.40
2022-12-02T17:24:15.566Z,2.80
2022-12-02T17:26:42.529Z,2.60
2022-12-02T17:29:09.611Z,2.30
2022-12-02T17:31:37.009Z,2.40
2022-12-02T17:34:14.675Z,2.60
2022-12-02T17:36:42.921Z,2.40
2022-12-02T17:39:11.505Z,2.30
2022-12-02T17:41:38.579Z,2.60
2022-12-02T17:44:05.656Z,2.60
2022-12-02T17:46:33.022Z,2.30
2022-12-02T17:49:00.125Z,2.30
2022-12-02T17:51:27.161Z,2.30
2022-12-02T17:53:54.160Z,2.30
2022-12-02T17:56:21.064Z,2.30
2022-12-02T17:58:48.038Z,2.70
2022-12-02T18:01:14.931Z,2.30
2022-12-02T18:03:41.958Z,2.30
2022-12-02T18:06:09.186Z,2.60
2022-12-02T18:08:36.566Z,2.30
2022-12-02T18:11:03.563Z,2.40
2022-12-02T18:13:30.605Z,2.40
2022-12-02T18:15:57.646Z,2.70
2022-12-02T18:18:24.657Z,2.40
2022-12-02T18:20:51.533Z,2.40
2022-12-02T18:23:18.582Z,2.60
2022-12-02T18:25:45.581Z,2.40
2022-12-02T18:28:12.556Z,2.50
2022-12-02T18:30:39.577Z,2.50
2022-12-02T18:33:07.168Z,2.80
2022-12-02T18:35:34.181Z,2.90
2022-12-02T18:38:01.169Z,2.70
2022-12-02T18:40:28.124Z,2.50
2022-12-02T18:42:55.051Z,2.50
2022-12-02T18:45:22.137Z,2.90
2022-12-02T18:47:49.216Z,2.70
2022-12-02T18:50:16.670Z,2.60
2022-12-02T18:52:43.729Z,2.30
2022-12-02T18:55:13.253Z,2.30
2022-12-02T18:57:40.429Z,2.40
2022-12-02T19:00:09.325Z,2.40
2022-12-02T19:02:36.365Z,2.40
2022-12-02T19:05:03.346Z,2.40
2022-12-02T19:07:30.391Z,2.40
2022-12-02T19:09:57.645Z,2.40
2022-12-02T19:12:24.605Z,2.50
2022-12-02T19:14:51.919Z,2.70
2022-12-02T19:17:18.959Z,2.40
2022-12-02T19:19:46.004Z,2.60
2022-12-02T19:22:13.330Z,2.70
2022-12-02T19:24:40.300Z,2.80
2022-12-02T19:27:07.157Z,2.50
2022-12-02T19:29:34.102Z,2.50
2022-12-02T19:32:00.984Z,2.40
2022-12-02T19:34:27.801Z,2.80
2022-12-02T19:36:54.878Z,2.40
2022-12-02T19:39:21.844Z,2.90
2022-12-02T19:41:49.111Z,2.50
2022-12-02T19:44:15.984Z,2.40
2022-12-02T19:46:42.874Z,2.70
2022-12-02T19:49:09.821Z,2.40
2022-12-02T19:51:36.817Z,2.40
2022-12-02T19:54:03.769Z,2.50
2022-12-02T19:56:30.694Z,2.50
2022-12-02T19:58:57.588Z,2.50
2022-12-02T20:01:24.685Z,2.80
2022-12-02T20:03:51.817Z,2.60
2022-12-02T20:06:18.752Z,2.60
2022-12-02T20:08:45.639Z,2.60
2022-12-02T20:11:12.595Z,2.60
2022-12-02T20:13:39.517Z,2.50
2022-12-02T20:16:06.515Z,2.50
2022-12-02T20:18:33.611Z,2.50
2022-12-02T20:21:00.456Z,2.50
2022-12-02T20:23:28.754Z,2.40
2022-12-02T20:25:55.794Z,2.40
2022-12-02T20:28:22.851Z,2.30
2022-12-02T20:30:49.893Z,2.30
2022-12-02T20:33:16.876Z,2.30
2022-12-02T20:35:43.966Z,2.20
2022-12-02T20:38:10.883Z,2.20
2022-12-02T20:40:37.676Z,2.20
2022-12-02T20:43:04.738Z,2.20
2022-12-02T20:45:31.750Z,2.10
2022-12-02T20:47:58.647Z,2.10
2022-12-02T20:50:25.502Z,2.10
2022-12-02T20:52:54.202Z,2.10
2022-12-02T20:55:21.698Z,2.00
2022-12-02T20:57:48.535Z,2.20
2022-12-02T21:00:16.391Z,2.00
2022-12-02T21:02:43.813Z,2.00
2022-12-02T21:05:11.144Z,2.00
2022-12-02T21:07:38.618Z,2.00
2022-12-02T21:10:06.655Z,2.30
2022-12-02T21:12:34.285Z,2.00
2022-12-02T21:15:01.340Z,2.30
2022-12-02T21:17:30.216Z,2.00
2022-12-02T21:19:57.400Z,2.00
2022-12-02T21:22:24.394Z,2.00
2022-12-02T21:24:51.594Z,2.00
2022-12-02T21:27:19.184Z,2.00
2022-12-02T21:29:46.183Z,2.00
2022-12-02T21:32:13.211Z,2.00
2022-12-02T21:34:40.107Z,2.30
2022-12-02T21:37:06.976Z,2.00
2022-12-02T21:39:33.768Z,2.00
2022-12-02T21:42:00.731Z,2.00
2022-12-02T21:44:27.594Z,2.10
2022-12-02T21:46:54.555Z,2.10
2022-12-02T21:49:21.529Z,2.10
2022-12-02T21:51:49.566Z,2.20
2022-12-02T21:54:16.765Z,2.10
2022-12-02T21:56:43.697Z,2.10
2022-12-02T21:59:10.654Z,2.10
2022-12-02T22:01:44.534Z,2.10
2022-12-02T22:04:14.999Z,2.10
2022-12-02T22:06:42.418Z,2.10
2022-12-02T22:09:09.438Z,2.10
2022-12-02T22:11:37.017Z,2.10
2022-12-02T22:14:05.131Z,2.00
2022-12-02T22:16:32.287Z,2.00
2022-12-02T22:18:59.839Z,2.00
2022-12-02T22:21:26.986Z,2.00
2022-12-02T22:23:53.892Z,2.00
2022-12-02T22:26:20.822Z,2.30
2022-12-02T22:28:47.787Z,2.00
2022-12-02T22:31:14.859Z,2.20
2022-12-02T22:33:41.814Z,2.00
2022-12-02T22:36:09.044Z,2.00
2022-12-02T22:38:36.105Z,2.00
2022-12-02T22:41:03.346Z,2.00
2022-12-02T22:43:30.264Z,2.00
2022-12-02T22:45:57.161Z,2.00
2022-12-02T22:48:24.119Z,2.00
2022-12-02T22:50:51.074Z,2.00
2022-12-02T22:53:17.997Z,2.00
2022-12-02T22:55:44.953Z,2.00
2022-12-02T22:58:11.996Z,2.00
2022-12-02T23:00:38.932Z,1.90
2022-12-02T23:03:05.997Z,1.90
2022-12-02T23:05:33.008Z,1.90
2022-12-02T23:08:00.212Z,1.90
2022-12-02T23:10:27.172Z,1.90
2022-12-02T23:12:54.143Z,1.90
2022-12-02T23:15:35.892Z,1.90
2022-12-02T23:18:04.490Z,1.90
2022-12-02T23:20:31.368Z,1.90
2022-12-02T23:22:58.353Z,1.80
2022-12-02T23:25:26.235Z,1.80
2022-12-02T23:27:53.174Z,1.80
2022-12-02T23:30:26.753Z,1.80
2022-12-02T23:32:56.133Z,1.70
2022-12-02T23:35:22.957Z,1.70
2022-12-02T23:37:49.888Z,1.70
2022-12-02T23:40:16.963Z,1.90
2022-12-02T23:42:43.972Z,1.80
2022-12-02T23:45:11.537Z,1.80
2022-12-02T23:47:38.714Z,1.80
2022-12-02T23:50:07.305Z,1.90
2022-12-02T23:52:34.182Z,1.80
2022-12-02T23:55:01.234Z,1.80
2022-12-02T23:57:28.191Z,1.80
2022-12-02T23:59:55.057Z,1.70
